sensor_id;sensor_type;location;lat;lon;timestamp;temperature;humidity
35690;DHT22;26977;44.830;-0.674;2023-02-02T00:00:58;4.30;99.90
35690;DHT22;26977;44.830;-0.674;2023-02-02T00:03:27;4.20;99.90
35690;DHT22;26977;44.830;-0.674;2023-02-02T00:06:05;4.30;99.90
35690;DHT22;26977;44.830;-0.674;2023-02-02T00:08:31;4.40;99.90
35690;DHT22;26977;44.830;-0.674;2023-02-02T00:10:56;4.40;99.90
35690;DHT22;26977;44.830;-0.674;2023-02-02T00:13:22;4.40;99.90
35690;DHT22;26977;44.830;-0.674;2023-02-02T00:15:48;4.50;99.90
35690;DHT22;26977;44.830;-0.674;2023-02-02T00:18:14;4.70;99.90
35690;DHT22;26977;44.830;-0.674;2023-02-02T00:20:39;4.70;99.90
35690;DHT22;26977;44.830;-0.674;2023-02-02T00:23:05;4.70;99.90
35690;DHT22;26977;44.830;-0.674;2023-02-02T00:25:31;4.80;99.90
35690;DHT22;26977;44.830;-0.674;2023-02-02T00:27:57;4.80;99.90
35690;DHT22;26977;44.830;-0.674;2023-02-02T00:30:23;4.80;99.90
35690;DHT22;26977;44.830;-0.674;2023-02-02T00:32:48;4.80;99.90
35690;DHT22;26977;44.830;-0.674;2023-02-02T00:35:16;4.80;99.90
35690;DHT22;26977;44.830;-0.674;2023-02-02T00:37:53;4.90;99.90
35690;DHT22;26977;44.830;-0.674;2023-02-02T00:40:18;4.90;99.90
35690;DHT22;26977;44.830;-0.674;2023-02-02T00:42:44;4.90;99.90
35690;DHT22;26977;44.830;-0.674;2023-02-02T00:45:14;5.00;99.90
35690;DHT22;26977;44.830;-0.674;2023-02-02T00:47:41;5.00;99.90
35690;DHT22;26977;44.830;-0.674;2023-02-02T00:50:09;5.00;99.90
35690;DHT22;26977;44.830;-0.674;2023-02-02T00:52:48;5.00;99.90
35690;DHT22;26977;44.830;-0.674;2023-02-02T00:55:16;5.00;99.90
35690;DHT22;26977;44.830;-0.674;2023-02-02T00:57:41;5.00;99.90
35690;DHT22;26977;44.830;-0.674;2023-02-02T01:00:12;5.10;99.90
35690;DHT22;26977;44.830;-0.674;2023-02-02T01:02:39;5.10;99.90
35690;DHT22;26977;44.830;-0.674;2023-02-02T01:05:05;5.20;99.90
35690;DHT22;26977;44.830;-0.674;2023-02-02T01:07:31;5.20;99.90
35690;DHT22;26977;44.830;-0.674;2023-02-02T01:09:57;5.30;99.90
35690;DHT22;26977;44.830;-0.674;2023-02-02T01:12:23;5.30;99.90
35690;DHT22;26977;44.830;-0.674;2023-02-02T01:14:49;5.40;99.90
35690;DHT22;26977;44.830;-0.674;2023-02-02T01:17:15;5.40;99.90
35690;DHT22;26977;44.830;-0.674;2023-02-02T01:19:41;5.40;99.90
35690;DHT22;26977;44.830;-0.674;2023-02-02T01:22:07;5.40;99.90
35690;DHT22;26977;44.830;-0.674;2023-02-02T01:24:33;5.40;99.90
35690;DHT22;26977;44.830;-0.674;2023-02-02T01:26:59;5.30;99.90
35690;DHT22;26977;44.830;-0.674;2023-02-02T01:29:25;5.30;99.90
35690;DHT22;26977;44.830;-0.674;2023-02-02T01:31:51;5.30;99.90
35690;DHT22;26977;44.830;-0.674;2023-02-02T01:34:17;5.40;99.90
35690;DHT22;26977;44.830;-0.674;2023-02-02T01:36:42;5.40;99.90
35690;DHT22;26977;44.830;-0.674;2023-02-02T01:39:08;5.40;99.90
35690;DHT22;26977;44.830;-0.674;2023-02-02T01:41:34;5.40;99.90
35690;DHT22;26977;44.830;-0.674;2023-02-02T01:44:02;5.40;99.90
35690;DHT22;26977;44.830;-0.674;2023-02-02T01:46:30;5.40;99.90
35690;DHT22;26977;44.830;-0.674;2023-02-02T01:49:04;5.40;99.90
35690;DHT22;26977;44.830;-0.674;2023-02-02T01:51:41;5.30;99.90
35690;DHT22;26977;44.830;-0.674;2023-02-02T01:54:23;5.30;99.90
35690;DHT22;26977;44.830;-0.674;2023-02-02T01:56:58;5.30;99.90
35690;DHT22;26977;44.830;-0.674;2023-02-02T01:59:25;5.30;99.90
35690;DHT22;26977;44.830;-0.674;2023-02-02T02:01:52;5.20;99.90
35690;DHT22;26977;44.830;-0.674;2023-02-02T02:04:19;5.20;99.90
35690;DHT22;26977;44.830;-0.674;2023-02-02T02:06:46;5.10;99.90
35690;DHT22;26977;44.830;-0.674;2023-02-02T02:09:13;5.00;99.90
35690;DHT22;26977;44.830;-0.674;2023-02-02T02:11:39;5.00;99.90
35690;DHT22;26977;44.830;-0.674;2023-02-02T02:14:07;4.90;99.90
35690;DHT22;26977;44.830;-0.674;2023-02-02T02:25:35;4.60;99.90
35690;DHT22;26977;44.830;-0.674;2023-02-02T02:34:00;4.30;99.90
35690;DHT22;26977;44.830;-0.674;2023-02-02T02:39:10;4.10;99.90
35690;DHT22;26977;44.830;-0.674;2023-02-02T02:41:46;4.00;99.90
35690;DHT22;26977;44.830;-0.674;2023-02-02T02:44:15;4.00;99.90
35690;DHT22;26977;44.830;-0.674;2023-02-02T02:46:42;3.90;99.90
35690;DHT22;26977;44.830;-0.674;2023-02-02T02:49:10;3.90;99.90
35690;DHT22;26977;44.830;-0.674;2023-02-02T02:51:49;3.80;99.90
35690;DHT22;26977;44.830;-0.674;2023-02-02T02:59:39;4.20;99.90
35690;DHT22;26977;44.830;-0.674;2023-02-02T03:04:55;4.30;99.90
35690;DHT22;26977;44.830;-0.674;2023-02-02T03:07:33;4.40;99.90
35690;DHT22;26977;44.830;-0.674;2023-02-02T03:10:01;4.50;99.90
35690;DHT22;26977;44.830;-0.674;2023-02-02T03:12:28;4.60;99.90
35690;DHT22;26977;44.830;-0.674;2023-02-02T03:14:54;4.70;99.90
35690;DHT22;26977;44.830;-0.674;2023-02-02T03:17:20;4.70;99.90
35690;DHT22;26977;44.830;-0.674;2023-02-02T03:19:45;4.80;99.90
35690;DHT22;26977;44.830;-0.674;2023-02-02T03:22:12;4.90;99.90
35690;DHT22;26977;44.830;-0.674;2023-02-02T03:24:38;4.90;99.90
35690;DHT22;26977;44.830;-0.674;2023-02-02T03:27:03;5.00;99.90
35690;DHT22;26977;44.830;-0.674;2023-02-02T03:29:29;5.10;99.90
35690;DHT22;26977;44.830;-0.674;2023-02-02T03:31:56;5.10;99.90
35690;DHT22;26977;44.830;-0.674;2023-02-02T03:34:21;5.10;99.90
35690;DHT22;26977;44.830;-0.674;2023-02-02T03:36:47;5.10;99.90
35690;DHT22;26977;44.830;-0.674;2023-02-02T03:39:13;5.20;99.90
35690;DHT22;26977;44.830;-0.674;2023-02-02T03:41:38;5.20;99.90
35690;DHT22;26977;44.830;-0.674;2023-02-02T03:44:04;5.20;99.90
35690;DHT22;26977;44.830;-0.674;2023-02-02T03:46:30;5.20;99.90
35690;DHT22;26977;44.830;-0.674;2023-02-02T03:48:55;5.30;99.90
35690;DHT22;26977;44.830;-0.674;2023-02-02T03:51:21;5.30;99.90
35690;DHT22;26977;44.830;-0.674;2023-02-02T03:53:47;5.30;99.90
35690;DHT22;26977;44.830;-0.674;2023-02-02T03:56:13;5.30;99.90
35690;DHT22;26977;44.830;-0.674;2023-02-02T03:58:39;5.30;99.90
35690;DHT22;26977;44.830;-0.674;2023-02-02T04:01:08;5.30;99.90
35690;DHT22;26977;44.830;-0.674;2023-02-02T04:03:35;5.30;99.90
35690;DHT22;26977;44.830;-0.674;2023-02-02T04:06:01;5.40;99.90
35690;DHT22;26977;44.830;-0.674;2023-02-02T04:08:27;5.40;99.90
35690;DHT22;26977;44.830;-0.674;2023-02-02T04:10:53;5.40;99.90
35690;DHT22;26977;44.830;-0.674;2023-02-02T04:13:19;5.40;99.90
35690;DHT22;26977;44.830;-0.674;2023-02-02T04:15:45;5.40;99.90
35690;DHT22;26977;44.830;-0.674;2023-02-02T04:18:11;5.40;99.90
35690;DHT22;26977;44.830;-0.674;2023-02-02T04:20:39;5.40;99.90
35690;DHT22;26977;44.830;-0.674;2023-02-02T04:23:04;5.40;99.90
35690;DHT22;26977;44.830;-0.674;2023-02-02T04:25:30;5.40;99.90
35690;DHT22;26977;44.830;-0.674;2023-02-02T04:27:56;5.40;99.90
35690;DHT22;26977;44.830;-0.674;2023-02-02T04:30:21;5.40;99.90
35690;DHT22;26977;44.830;-0.674;2023-02-02T04:32:47;5.40;99.90
35690;DHT22;26977;44.830;-0.674;2023-02-02T04:35:13;5.40;99.90
35690;DHT22;26977;44.830;-0.674;2023-02-02T04:37:38;5.40;99.90
35690;DHT22;26977;44.830;-0.674;2023-02-02T04:40:05;5.40;99.90
35690;DHT22;26977;44.830;-0.674;2023-02-02T04:42:41;5.40;99.90
35690;DHT22;26977;44.830;-0.674;2023-02-02T04:45:07;5.40;99.90
35690;DHT22;26977;44.830;-0.674;2023-02-02T04:47:33;5.40;99.90
35690;DHT22;26977;44.830;-0.674;2023-02-02T04:49:58;5.40;99.90
35690;DHT22;26977;44.830;-0.674;2023-02-02T04:52:24;5.40;99.90
35690;DHT22;26977;44.830;-0.674;2023-02-02T04:54:50;5.40;99.90
35690;DHT22;26977;44.830;-0.674;2023-02-02T04:57:15;5.40;99.90
35690;DHT22;26977;44.830;-0.674;2023-02-02T04:59:42;5.40;99.90
35690;DHT22;26977;44.830;-0.674;2023-02-02T05:02:07;5.40;99.90
35690;DHT22;26977;44.830;-0.674;2023-02-02T05:04:33;5.40;99.90
35690;DHT22;26977;44.830;-0.674;2023-02-02T05:06:59;5.30;99.90
35690;DHT22;26977;44.830;-0.674;2023-02-02T05:09:25;5.30;99.90
35690;DHT22;26977;44.830;-0.674;2023-02-02T05:11:51;5.30;99.90
35690;DHT22;26977;44.830;-0.674;2023-02-02T05:14:16;5.30;99.90
35690;DHT22;26977;44.830;-0.674;2023-02-02T05:16:44;5.30;99.90
35690;DHT22;26977;44.830;-0.674;2023-02-02T05:19:11;5.30;99.90
35690;DHT22;26977;44.830;-0.674;2023-02-02T05:21:36;5.30;99.90
35690;DHT22;26977;44.830;-0.674;2023-02-02T05:24:02;5.20;99.90
35690;DHT22;26977;44.830;-0.674;2023-02-02T05:26:28;5.20;99.90
35690;DHT22;26977;44.830;-0.674;2023-02-02T05:28:55;5.20;99.90
35690;DHT22;26977;44.830;-0.674;2023-02-02T05:31:21;5.20;99.90
35690;DHT22;26977;44.830;-0.674;2023-02-02T05:33:47;5.10;99.90
35690;DHT22;26977;44.830;-0.674;2023-02-02T05:36:12;5.10;99.90
35690;DHT22;26977;44.830;-0.674;2023-02-02T05:38:41;5.10;99.90
35690;DHT22;26977;44.830;-0.674;2023-02-02T05:41:07;5.10;99.90
35690;DHT22;26977;44.830;-0.674;2023-02-02T05:43:33;5.10;99.90
35690;DHT22;26977;44.830;-0.674;2023-02-02T05:45:59;5.10;99.90
35690;DHT22;26977;44.830;-0.674;2023-02-02T05:48:26;5.10;99.90
35690;DHT22;26977;44.830;-0.674;2023-02-02T05:51:01;5.10;99.90
35690;DHT22;26977;44.830;-0.674;2023-02-02T05:53:31;5.20;99.90
35690;DHT22;26977;44.830;-0.674;2023-02-02T05:55:57;5.20;99.90
35690;DHT22;26977;44.830;-0.674;2023-02-02T05:58:23;5.20;99.90
35690;DHT22;26977;44.830;-0.674;2023-02-02T06:00:50;5.20;99.90
35690;DHT22;26977;44.830;-0.674;2023-02-02T06:03:16;5.20;99.90
35690;DHT22;26977;44.830;-0.674;2023-02-02T06:05:42;5.20;99.90
35690;DHT22;26977;44.830;-0.674;2023-02-02T06:08:07;5.30;99.90
35690;DHT22;26977;44.830;-0.674;2023-02-02T06:10:33;5.30;99.90
35690;DHT22;26977;44.830;-0.674;2023-02-02T06:12:59;5.30;99.90
35690;DHT22;26977;44.830;-0.674;2023-02-02T06:15:24;5.30;99.90
35690;DHT22;26977;44.830;-0.674;2023-02-02T06:17:53;5.30;99.90
35690;DHT22;26977;44.830;-0.674;2023-02-02T06:20:19;5.30;99.90
35690;DHT22;26977;44.830;-0.674;2023-02-02T06:22:44;5.30;99.90
35690;DHT22;26977;44.830;-0.674;2023-02-02T06:25:20;5.20;99.90
35690;DHT22;26977;44.830;-0.674;2023-02-02T06:27:46;5.20;99.90
35690;DHT22;26977;44.830;-0.674;2023-02-02T06:30:14;5.20;99.90
35690;DHT22;26977;44.830;-0.674;2023-02-02T06:32:40;5.20;99.90
35690;DHT22;26977;44.830;-0.674;2023-02-02T06:35:06;5.20;99.90
35690;DHT22;26977;44.830;-0.674;2023-02-02T06:37:32;5.20;99.90
35690;DHT22;26977;44.830;-0.674;2023-02-02T06:39:59;5.10;99.90
35690;DHT22;26977;44.830;-0.674;2023-02-02T06:42:24;5.20;99.90
35690;DHT22;26977;44.830;-0.674;2023-02-02T06:44:50;5.10;99.90
35690;DHT22;26977;44.830;-0.674;2023-02-02T06:47:16;5.10;99.90
35690;DHT22;26977;44.830;-0.674;2023-02-02T06:49:42;5.10;99.90
35690;DHT22;26977;44.830;-0.674;2023-02-02T06:52:07;5.10;99.90
35690;DHT22;26977;44.830;-0.674;2023-02-02T06:54:33;5.00;99.90
35690;DHT22;26977;44.830;-0.674;2023-02-02T06:56:58;5.00;99.90
35690;DHT22;26977;44.830;-0.674;2023-02-02T06:59:24;5.00;99.90
35690;DHT22;26977;44.830;-0.674;2023-02-02T07:01:50;5.00;99.90
35690;DHT22;26977;44.830;-0.674;2023-02-02T07:04:17;5.00;99.90
35690;DHT22;26977;44.830;-0.674;2023-02-02T07:06:42;5.00;99.90
35690;DHT22;26977;44.830;-0.674;2023-02-02T07:09:08;5.00;99.90
35690;DHT22;26977;44.830;-0.674;2023-02-02T07:11:34;4.90;99.90
35690;DHT22;26977;44.830;-0.674;2023-02-02T07:14:01;4.90;99.90
35690;DHT22;26977;44.830;-0.674;2023-02-02T07:16:27;5.00;99.90
35690;DHT22;26977;44.830;-0.674;2023-02-02T07:18:53;4.90;99.90
35690;DHT22;26977;44.830;-0.674;2023-02-02T07:21:21;4.90;99.90
35690;DHT22;26977;44.830;-0.674;2023-02-02T07:23:47;4.90;99.90
35690;DHT22;26977;44.830;-0.674;2023-02-02T07:26:15;5.00;99.90
35690;DHT22;26977;44.830;-0.674;2023-02-02T07:28:41;5.00;99.90
35690;DHT22;26977;44.830;-0.674;2023-02-02T07:31:20;5.00;99.90
35690;DHT22;26977;44.830;-0.674;2023-02-02T07:33:47;5.00;99.90
35690;DHT22;26977;44.830;-0.674;2023-02-02T07:36:15;5.00;99.90
35690;DHT22;26977;44.830;-0.674;2023-02-02T07:38:41;5.00;99.90
35690;DHT22;26977;44.830;-0.674;2023-02-02T07:41:07;5.00;99.90
35690;DHT22;26977;44.830;-0.674;2023-02-02T07:43:33;5.00;99.90
35690;DHT22;26977;44.830;-0.674;2023-02-02T07:46:00;4.90;99.90
35690;DHT22;26977;44.830;-0.674;2023-02-02T07:48:30;5.00;99.90
35690;DHT22;26977;44.830;-0.674;2023-02-02T07:51:04;5.00;99.90
35690;DHT22;26977;44.830;-0.674;2023-02-02T07:53:30;5.00;99.90
35690;DHT22;26977;44.830;-0.674;2023-02-02T07:56:11;5.10;99.90
35690;DHT22;26977;44.830;-0.674;2023-02-02T07:58:38;5.20;99.90
35690;DHT22;26977;44.830;-0.674;2023-02-02T08:01:05;5.20;99.90
35690;DHT22;26977;44.830;-0.674;2023-02-02T08:03:32;5.20;99.90
35690;DHT22;26977;44.830;-0.674;2023-02-02T08:05:58;5.20;99.90
35690;DHT22;26977;44.830;-0.674;2023-02-02T08:08:24;5.20;99.90
35690;DHT22;26977;44.830;-0.674;2023-02-02T08:10:51;5.10;99.90
35690;DHT22;26977;44.830;-0.674;2023-02-02T08:13:17;5.10;99.90
35690;DHT22;26977;44.830;-0.674;2023-02-02T08:15:43;5.10;99.90
35690;DHT22;26977;44.830;-0.674;2023-02-02T08:18:08;5.10;99.90
35690;DHT22;26977;44.830;-0.674;2023-02-02T08:20:34;5.10;99.90
35690;DHT22;26977;44.830;-0.674;2023-02-02T08:23:00;5.10;99.90
35690;DHT22;26977;44.830;-0.674;2023-02-02T08:25:25;5.10;99.90
35690;DHT22;26977;44.830;-0.674;2023-02-02T08:27:57;5.20;99.90
35690;DHT22;26977;44.830;-0.674;2023-02-02T08:30:23;5.20;99.90
35690;DHT22;26977;44.830;-0.674;2023-02-02T08:32:49;5.20;99.90
35690;DHT22;26977;44.830;-0.674;2023-02-02T08:35:15;5.20;99.90
35690;DHT22;26977;44.830;-0.674;2023-02-02T08:37:41;5.20;99.90
35690;DHT22;26977;44.830;-0.674;2023-02-02T08:40:07;5.20;99.90
35690;DHT22;26977;44.830;-0.674;2023-02-02T08:42:33;5.30;99.90
35690;DHT22;26977;44.830;-0.674;2023-02-02T08:44:59;5.30;99.90
35690;DHT22;26977;44.830;-0.674;2023-02-02T08:47:28;5.30;99.90
35690;DHT22;26977;44.830;-0.674;2023-02-02T08:49:54;5.30;99.90
35690;DHT22;26977;44.830;-0.674;2023-02-02T08:52:19;5.40;99.90
35690;DHT22;26977;44.830;-0.674;2023-02-02T08:54:45;5.50;99.90
35690;DHT22;26977;44.830;-0.674;2023-02-02T08:57:11;5.50;99.90
35690;DHT22;26977;44.830;-0.674;2023-02-02T08:59:36;5.60;99.90
35690;DHT22;26977;44.830;-0.674;2023-02-02T09:02:02;5.60;99.90
35690;DHT22;26977;44.830;-0.674;2023-02-02T09:04:28;5.50;99.90
35690;DHT22;26977;44.830;-0.674;2023-02-02T09:06:53;5.60;99.90
35690;DHT22;26977;44.830;-0.674;2023-02-02T09:09:19;5.70;99.90
35690;DHT22;26977;44.830;-0.674;2023-02-02T09:11:45;5.80;99.90
35690;DHT22;26977;44.830;-0.674;2023-02-02T09:14:12;5.90;99.90
35690;DHT22;26977;44.830;-0.674;2023-02-02T09:16:38;5.80;99.90
35690;DHT22;26977;44.830;-0.674;2023-02-02T09:19:04;5.90;99.90
35690;DHT22;26977;44.830;-0.674;2023-02-02T09:21:30;6.00;99.90
35690;DHT22;26977;44.830;-0.674;2023-02-02T09:24:11;6.00;99.90
35690;DHT22;26977;44.830;-0.674;2023-02-02T09:26:37;6.10;99.90
35690;DHT22;26977;44.830;-0.674;2023-02-02T09:29:06;6.20;99.90
35690;DHT22;26977;44.830;-0.674;2023-02-02T09:31:34;6.30;99.90
35690;DHT22;26977;44.830;-0.674;2023-02-02T09:34:05;6.30;99.90
35690;DHT22;26977;44.830;-0.674;2023-02-02T09:36:31;6.30;99.90
35690;DHT22;26977;44.830;-0.674;2023-02-02T09:38:57;6.40;99.90
35690;DHT22;26977;44.830;-0.674;2023-02-02T09:41:56;6.40;99.90
35690;DHT22;26977;44.830;-0.674;2023-02-02T09:49:32;6.70;99.90
35690;DHT22;26977;44.830;-0.674;2023-02-02T09:52:09;6.80;99.90
35690;DHT22;26977;44.830;-0.674;2023-02-02T09:54:44;6.90;99.90
35690;DHT22;26977;44.830;-0.674;2023-02-02T10:00:29;7.10;99.90
35690;DHT22;26977;44.830;-0.674;2023-02-02T10:03:06;7.30;99.90
35690;DHT22;26977;44.830;-0.674;2023-02-02T10:06:10;7.40;99.90
35690;DHT22;26977;44.830;-0.674;2023-02-02T10:08:44;7.40;99.90
35690;DHT22;26977;44.830;-0.674;2023-02-02T10:14:10;7.60;99.90
35690;DHT22;26977;44.830;-0.674;2023-02-02T10:16:38;7.80;99.90
35690;DHT22;26977;44.830;-0.674;2023-02-02T10:19:11;7.90;99.90
35690;DHT22;26977;44.830;-0.674;2023-02-02T10:24:24;8.10;99.90
35690;DHT22;26977;44.830;-0.674;2023-02-02T10:26:53;8.20;99.90
35690;DHT22;26977;44.830;-0.674;2023-02-02T10:29:36;8.30;99.90
35690;DHT22;26977;44.830;-0.674;2023-02-02T10:43:30;8.60;99.90
35690;DHT22;26977;44.830;-0.674;2023-02-02T10:46:17;8.70;99.90
35690;DHT22;26977;44.830;-0.674;2023-02-02T10:48:46;8.90;99.90
35690;DHT22;26977;44.830;-0.674;2023-02-02T10:51:28;9.10;99.90
35690;DHT22;26977;44.830;-0.674;2023-02-02T10:53:57;9.10;99.90
35690;DHT22;26977;44.830;-0.674;2023-02-02T10:56:43;9.10;99.90
35690;DHT22;26977;44.830;-0.674;2023-02-02T10:59:28;9.10;99.90
35690;DHT22;26977;44.830;-0.674;2023-02-02T11:01:55;9.10;99.80
35690;DHT22;26977;44.830;-0.674;2023-02-02T11:04:21;9.20;98.40
35690;DHT22;26977;44.830;-0.674;2023-02-02T11:07:05;9.20;99.10
35690;DHT22;26977;44.830;-0.674;2023-02-02T11:09:36;9.20;98.70
35690;DHT22;26977;44.830;-0.674;2023-02-02T11:12:11;9.20;98.80
35690;DHT22;26977;44.830;-0.674;2023-02-02T11:15:07;9.40;98.40
35690;DHT22;26977;44.830;-0.674;2023-02-02T11:17:34;9.50;98.70
35690;DHT22;26977;44.830;-0.674;2023-02-02T11:20:00;9.60;98.20
35690;DHT22;26977;44.830;-0.674;2023-02-02T11:22:32;9.70;97.80
35690;DHT22;26977;44.830;-0.674;2023-02-02T11:28:33;9.80;97.40
35690;DHT22;26977;44.830;-0.674;2023-02-02T11:31:33;9.80;97.40
35690;DHT22;26977;44.830;-0.674;2023-02-02T11:34:15;9.90;97.00
35690;DHT22;26977;44.830;-0.674;2023-02-02T11:37:13;9.90;96.70
35690;DHT22;26977;44.830;-0.674;2023-02-02T11:39:42;9.90;96.40
35690;DHT22;26977;44.830;-0.674;2023-02-02T11:42:22;10.00;96.80
35690;DHT22;26977;44.830;-0.674;2023-02-02T11:45:14;9.90;95.40
35690;DHT22;26977;44.830;-0.674;2023-02-02T11:47:41;9.80;95.80
35690;DHT22;26977;44.830;-0.674;2023-02-02T11:50:22;9.80;96.20
35690;DHT22;26977;44.830;-0.674;2023-02-02T11:52:49;9.70;96.20
35690;DHT22;26977;44.830;-0.674;2023-02-02T11:55:19;9.70;96.50
35690;DHT22;26977;44.830;-0.674;2023-02-02T11:58:25;9.70;95.90
35690;DHT22;26977;44.830;-0.674;2023-02-02T12:01:01;9.70;95.60
35690;DHT22;26977;44.830;-0.674;2023-02-02T12:05:53;9.70;95.90
35690;DHT22;26977;44.830;-0.674;2023-02-02T12:08:19;9.70;95.70
35690;DHT22;26977;44.830;-0.674;2023-02-02T12:28:21;10.00;95.40
35690;DHT22;26977;44.830;-0.674;2023-02-02T12:31:10;10.00;95.10
35690;DHT22;26977;44.830;-0.674;2023-02-02T12:47:49;10.30;95.20
35690;DHT22;26977;44.830;-0.674;2023-02-02T12:58:59;10.30;94.90
35690;DHT22;26977;44.830;-0.674;2023-02-02T13:01:55;10.40;94.80
35690;DHT22;26977;44.830;-0.674;2023-02-02T13:07:19;10.40;94.70
35690;DHT22;26977;44.830;-0.674;2023-02-02T13:09:50;10.40;94.30
35690;DHT22;26977;44.830;-0.674;2023-02-02T13:12:23;10.40;94.30
35690;DHT22;26977;44.830;-0.674;2023-02-02T13:14:56;10.30;93.80
35690;DHT22;26977;44.830;-0.674;2023-02-02T13:17:40;10.50;94.60
35690;DHT22;26977;44.830;-0.674;2023-02-02T13:20:24;10.60;94.50
35690;DHT22;26977;44.830;-0.674;2023-02-02T13:22:57;10.70;94.20
35690;DHT22;26977;44.830;-0.674;2023-02-02T13:25:29;10.70;94.30
35690;DHT22;26977;44.830;-0.674;2023-02-02T13:27:57;10.80;94.10
35690;DHT22;26977;44.830;-0.674;2023-02-02T13:30:29;10.80;94.00
35690;DHT22;26977;44.830;-0.674;2023-02-02T13:33:27;10.90;93.30
35690;DHT22;26977;44.830;-0.674;2023-02-02T13:35:54;10.90;93.50
35690;DHT22;26977;44.830;-0.674;2023-02-02T13:38:25;11.00;94.10
35690;DHT22;26977;44.830;-0.674;2023-02-02T13:40:58;11.00;93.30
35690;DHT22;26977;44.830;-0.674;2023-02-02T13:56:38;11.00;92.90
35690;DHT22;26977;44.830;-0.674;2023-02-02T13:59:17;11.00;93.30
35690;DHT22;26977;44.830;-0.674;2023-02-02T14:01:48;11.10;92.90
35690;DHT22;26977;44.830;-0.674;2023-02-02T14:04:24;11.20;93.50
35690;DHT22;26977;44.830;-0.674;2023-02-02T14:06:57;11.20;92.60
35690;DHT22;26977;44.830;-0.674;2023-02-02T14:09:26;11.20;93.00
35690;DHT22;26977;44.830;-0.674;2023-02-02T14:11:58;11.40;93.30
35690;DHT22;26977;44.830;-0.674;2023-02-02T14:14:25;11.50;93.30
35690;DHT22;26977;44.830;-0.674;2023-02-02T14:17:03;11.70;93.90
35690;DHT22;26977;44.830;-0.674;2023-02-02T14:29:34;13.70;90.00
35690;DHT22;26977;44.830;-0.674;2023-02-02T14:34:51;14.80;87.50
35690;DHT22;26977;44.830;-0.674;2023-02-02T14:49:04;16.10;82.90
35690;DHT22;26977;44.830;-0.674;2023-02-02T14:51:40;16.50;83.30
35690;DHT22;26977;44.830;-0.674;2023-02-02T14:54:18;16.50;80.30
35690;DHT22;26977;44.830;-0.674;2023-02-02T14:56:50;16.00;81.80
35690;DHT22;26977;44.830;-0.674;2023-02-02T15:02:23;15.90;82.70
35690;DHT22;26977;44.830;-0.674;2023-02-02T15:07:54;16.60;80.20
35690;DHT22;26977;44.830;-0.674;2023-02-02T15:13:20;16.10;80.00
35690;DHT22;26977;44.830;-0.674;2023-02-02T15:15:48;16.50;81.00
35690;DHT22;26977;44.830;-0.674;2023-02-02T15:18:42;17.00;78.60
35690;DHT22;26977;44.830;-0.674;2023-02-02T15:21:14;17.40;82.90
35690;DHT22;26977;44.830;-0.674;2023-02-02T15:23:43;17.00;78.80
35690;DHT22;26977;44.830;-0.674;2023-02-02T15:26:29;16.20;78.70
35690;DHT22;26977;44.830;-0.674;2023-02-02T15:28:58;15.70;81.60
35690;DHT22;26977;44.830;-0.674;2023-02-02T15:31:35;16.00;81.20
35690;DHT22;26977;44.830;-0.674;2023-02-02T15:36:48;15.90;81.40
35690;DHT22;26977;44.830;-0.674;2023-02-02T15:39:32;16.20;82.00
35690;DHT22;26977;44.830;-0.674;2023-02-02T15:42:02;16.50;80.30
35690;DHT22;26977;44.830;-0.674;2023-02-02T15:44:47;16.80;78.70
35690;DHT22;26977;44.830;-0.674;2023-02-02T15:47:16;16.00;79.10
35690;DHT22;26977;44.830;-0.674;2023-02-02T15:49:43;15.90;79.50
35690;DHT22;26977;44.830;-0.674;2023-02-02T15:52:25;15.90;80.30
35690;DHT22;26977;44.830;-0.674;2023-02-02T15:54:54;15.90;79.60
35690;DHT22;26977;44.830;-0.674;2023-02-02T15:59:54;15.60;82.10
35690;DHT22;26977;44.830;-0.674;2023-02-02T16:02:28;15.20;81.50
35690;DHT22;26977;44.830;-0.674;2023-02-02T16:08:05;15.40;80.80
35690;DHT22;26977;44.830;-0.674;2023-02-02T16:10:32;15.60;81.30
35690;DHT22;26977;44.830;-0.674;2023-02-02T16:12:58;15.00;82.30
35690;DHT22;26977;44.830;-0.674;2023-02-02T16:15:28;14.80;82.00
35690;DHT22;26977;44.830;-0.674;2023-02-02T16:18:05;14.30;82.70
35690;DHT22;26977;44.830;-0.674;2023-02-02T16:20:36;13.90;85.20
35690;DHT22;26977;44.830;-0.674;2023-02-02T16:23:04;13.50;85.30
35690;DHT22;26977;44.830;-0.674;2023-02-02T16:25:41;13.30;86.50
35690;DHT22;26977;44.830;-0.674;2023-02-02T16:28:13;13.10;86.50
35690;DHT22;26977;44.830;-0.674;2023-02-02T16:30:41;13.10;86.10
35690;DHT22;26977;44.830;-0.674;2023-02-02T16:33:27;12.90;87.30
35690;DHT22;26977;44.830;-0.674;2023-02-02T16:35:53;12.70;88.60
35690;DHT22;26977;44.830;-0.674;2023-02-02T16:38:30;12.30;88.90
35690;DHT22;26977;44.830;-0.674;2023-02-02T16:43:30;11.50;90.30
35690;DHT22;26977;44.830;-0.674;2023-02-02T16:45:58;11.20;91.10
35690;DHT22;26977;44.830;-0.674;2023-02-02T16:53:43;10.40;92.20
35690;DHT22;26977;44.830;-0.674;2023-02-02T16:56:19;10.20;93.10
35690;DHT22;26977;44.830;-0.674;2023-02-02T16:58:46;10.10;92.90
35690;DHT22;26977;44.830;-0.674;2023-02-02T17:01:12;9.90;93.40
35690;DHT22;26977;44.830;-0.674;2023-02-02T17:03:48;9.70;93.40
35690;DHT22;26977;44.830;-0.674;2023-02-02T17:06:14;9.70;93.70
35690;DHT22;26977;44.830;-0.674;2023-02-02T17:08:40;9.60;93.80
35690;DHT22;26977;44.830;-0.674;2023-02-02T17:11:23;9.50;93.80
35690;DHT22;26977;44.830;-0.674;2023-02-02T17:13:51;9.30;94.10
35690;DHT22;26977;44.830;-0.674;2023-02-02T17:16:22;9.20;94.20
35690;DHT22;26977;44.830;-0.674;2023-02-02T17:18:47;9.10;94.30
35690;DHT22;26977;44.830;-0.674;2023-02-02T17:21:18;9.00;94.50
35690;DHT22;26977;44.830;-0.674;2023-02-02T17:23:44;8.90;94.70
35690;DHT22;26977;44.830;-0.674;2023-02-02T17:26:11;8.90;95.00
35690;DHT22;26977;44.830;-0.674;2023-02-02T17:28:40;8.70;95.40
35690;DHT22;26977;44.830;-0.674;2023-02-02T17:31:10;8.50;95.40
35690;DHT22;26977;44.830;-0.674;2023-02-02T17:33:37;8.50;95.60
35690;DHT22;26977;44.830;-0.674;2023-02-02T17:36:03;8.50;95.50
35690;DHT22;26977;44.830;-0.674;2023-02-02T17:38:30;8.40;95.60
35690;DHT22;26977;44.830;-0.674;2023-02-02T17:40:59;8.40;95.90
35690;DHT22;26977;44.830;-0.674;2023-02-02T17:43:25;8.40;95.90
35690;DHT22;26977;44.830;-0.674;2023-02-02T17:45:51;8.30;95.90
35690;DHT22;26977;44.830;-0.674;2023-02-02T17:48:27;8.30;96.10
35690;DHT22;26977;44.830;-0.674;2023-02-02T17:50:52;8.10;96.60
35690;DHT22;26977;44.830;-0.674;2023-02-02T17:53:20;8.10;96.50
35690;DHT22;26977;44.830;-0.674;2023-02-02T17:55:47;8.00;96.50
35690;DHT22;26977;44.830;-0.674;2023-02-02T17:58:14;7.90;96.70
35690;DHT22;26977;44.830;-0.674;2023-02-02T18:00:44;7.90;96.90
35690;DHT22;26977;44.830;-0.674;2023-02-02T18:03:21;7.80;97.20
35690;DHT22;26977;44.830;-0.674;2023-02-02T18:05:47;7.60;97.40
35690;DHT22;26977;44.830;-0.674;2023-02-02T18:08:14;7.60;97.40
35690;DHT22;26977;44.830;-0.674;2023-02-02T18:10:40;7.60;97.60
35690;DHT22;26977;44.830;-0.674;2023-02-02T18:13:07;7.40;97.90
35690;DHT22;26977;44.830;-0.674;2023-02-02T18:15:35;7.40;97.90
35690;DHT22;26977;44.830;-0.674;2023-02-02T18:18:12;7.40;98.00
35690;DHT22;26977;44.830;-0.674;2023-02-02T18:20:45;7.40;97.90
35690;DHT22;26977;44.830;-0.674;2023-02-02T18:23:12;7.40;98.00
35690;DHT22;26977;44.830;-0.674;2023-02-02T18:25:38;7.40;98.00